sensor_id;sensor_type;location;lat;lon;timestamp;P1;durP1;ratioP1;P2;durP2;ratioP2
22752;SDS011;11543;43.144;24.684;2023-04-25T07:40:42;2.88;;;2.30;;
22752;SDS011;11543;43.144;24.684;2023-04-25T08:59:05;3.42;;;1.45;;
22752;SDS011;11543;43.144;24.684;2023-04-25T09:06:03;1.48;;;1.30;;
22752;SDS011;11543;43.144;24.684;2023-04-25T09:08:33;1.67;;;1.35;;
22752;SDS011;11543;43.144;24.684;2023-04-25T09:11:17;4.20;;;1.60;;
22752;SDS011;11543;43.144;24.684;2023-04-25T09:17:03;1.52;;;1.40;;
22752;SDS011;11543;43.144;24.684;2023-04-25T09:23:08;2.70;;;1.27;;
22752;SDS011;11543;43.144;24.684;2023-04-25T09:30:13;1.45;;;1.10;;
22752;SDS011;11543;43.144;24.684;2023-04-25T09:32:43;2.97;;;1.20;;
22752;SDS011;11543;43.144;24.684;2023-04-25T09:35:08;2.05;;;0.90;;
22752;SDS011;11543;43.144;24.684;2023-04-25T09:37:34;2.35;;;1.20;;
22752;SDS011;11543;43.144;24.684;2023-04-25T09:40:00;1.70;;;1.10;;
22752;SDS011;11543;43.144;24.684;2023-04-25T09:42:41;1.42;;;1.08;;
22752;SDS011;11543;43.144;24.684;2023-04-25T09:45:16;2.65;;;1.10;;
22752;SDS011;11543;43.144;24.684;2023-04-25T09:48:04;1.50;;;0.98;;
22752;SDS011;11543;43.144;24.684;2023-04-25T09:50:35;3.60;;;1.00;;
22752;SDS011;11543;43.144;24.684;2023-04-25T09:53:29;4.60;;;2.00;;
22752;SDS011;11543;43.144;24.684;2023-04-25T09:55:55;6.07;;;2.17;;
22752;SDS011;11543;43.144;24.684;2023-04-25T09:58:27;2.13;;;1.92;;
22752;SDS011;11543;43.144;24.684;2023-04-25T10:01:01;2.42;;;1.92;;
22752;SDS011;11543;43.144;24.684;2023-04-25T10:03:29;4.85;;;1.60;;
22752;SDS011;11543;43.144;24.684;2023-04-25T10:05:58;2.60;;;1.88;;
22752;SDS011;11543;43.144;24.684;2023-04-25T10:08:27;4.78;;;2.15;;
22752;SDS011;11543;43.144;24.684;2023-04-25T10:10:58;3.28;;;1.80;;
22752;SDS011;11543;43.144;24.684;2023-04-25T10:13:31;2.92;;;1.70;;
22752;SDS011;11543;43.144;24.684;2023-04-25T10:15:58;3.60;;;1.50;;
22752;SDS011;11543;43.144;24.684;2023-04-25T10:18:27;1.88;;;1.60;;
22752;SDS011;11543;43.144;24.684;2023-04-25T10:20:57;2.20;;;1.33;;
22752;SDS011;11543;43.144;24.684;2023-04-25T10:23:25;2.17;;;1.60;;
22752;SDS011;11543;43.144;24.684;2023-04-25T10:25:51;2.20;;;1.50;;
22752;SDS011;11543;43.144;24.684;2023-04-25T10:28:18;2.40;;;1.52;;
22752;SDS011;11543;43.144;24.684;2023-04-25T10:31:03;2.42;;;1.42;;
22752;SDS011;11543;43.144;24.684;2023-04-25T10:33:39;2.33;;;1.42;;
22752;SDS011;11543;43.144;24.684;2023-04-25T10:36:11;2.53;;;1.60;;
22752;SDS011;11543;43.144;24.684;2023-04-25T10:38:38;3.33;;;1.60;;
22752;SDS011;11543;43.144;24.684;2023-04-25T10:41:05;3.88;;;1.77;;
22752;SDS011;11543;43.144;24.684;2023-04-25T10:43:45;2.35;;;1.60;;
22752;SDS011;11543;43.144;24.684;2023-04-25T10:46:13;3.00;;;1.60;;
22752;SDS011;11543;43.144;24.684;2023-04-25T10:48:46;2.88;;;1.50;;
22752;SDS011;11543;43.144;24.684;2023-04-25T10:51:24;2.50;;;1.58;;
22752;SDS011;11543;43.144;24.684;2023-04-25T10:54:06;2.08;;;1.60;;
22752;SDS011;11543;43.144;24.684;2023-04-25T10:56:33;2.30;;;1.45;;
22752;SDS011;11543;43.144;24.684;2023-04-25T10:59:09;2.70;;;1.50;;
22752;SDS011;11543;43.144;24.684;2023-04-25T11:01:43;2.10;;;1.42;;
22752;SDS011;11543;43.144;24.684;2023-04-25T11:04:21;2.22;;;1.65;;
22752;SDS011;11543;43.144;24.684;2023-04-25T11:20:37;4.47;;;2.63;;
22752;SDS011;11543;43.144;24.684;2023-04-25T11:23:11;5.00;;;2.88;;
22752;SDS011;11543;43.144;24.684;2023-04-25T11:25:44;5.53;;;2.65;;
22752;SDS011;11543;43.144;24.684;2023-04-25T11:28:13;6.85;;;3.38;;
22752;SDS011;11543;43.144;24.684;2023-04-25T11:30:55;5.28;;;2.65;;
22752;SDS011;11543;43.144;24.684;2023-04-25T11:33:24;2.85;;;2.58;;
22752;SDS011;11543;43.144;24.684;2023-04-25T11:35:59;7.00;;;2.50;;
22752;SDS011;11543;43.144;24.684;2023-04-25T11:38:51;3.30;;;2.08;;
22752;SDS011;11543;43.144;24.684;2023-04-25T11:41:29;3.55;;;2.30;;
22752;SDS011;11543;43.144;24.684;2023-04-25T11:43:55;3.20;;;2.50;;
22752;SDS011;11543;43.144;24.684;2023-04-25T11:46:21;2.45;;;2.00;;
22752;SDS011;11543;43.144;24.684;2023-04-25T11:48:47;6.78;;;2.33;;
22752;SDS011;11543;43.144;24.684;2023-04-25T11:51:28;4.38;;;2.28;;
22752;SDS011;11543;43.144;24.684;2023-04-25T11:54:11;3.17;;;1.65;;
22752;SDS011;11543;43.144;24.684;2023-04-25T11:56:43;2.72;;;1.60;;
22752;SDS011;11543;43.144;24.684;2023-04-25T11:59:10;3.38;;;1.63;;
22752;SDS011;11543;43.144;24.684;2023-04-25T12:01:47;4.53;;;1.60;;
22752;SDS011;11543;43.144;24.684;2023-04-25T12:04:15;1.65;;;1.40;;
22752;SDS011;11543;43.144;24.684;2023-04-25T12:06:48;3.25;;;1.38;;
22752;SDS011;11543;43.144;24.684;2023-04-25T12:09:16;3.53;;;1.65;;
22752;SDS011;11543;43.144;24.684;2023-04-25T12:11:47;2.30;;;1.35;;
22752;SDS011;11543;43.144;24.684;2023-04-25T12:14:21;3.72;;;1.40;;
22752;SDS011;11543;43.144;24.684;2023-04-25T12:16:52;2.38;;;1.20;;
22752;SDS011;11543;43.144;24.684;2023-04-25T12:19:19;2.10;;;1.13;;
22752;SDS011;11543;43.144;24.684;2023-04-25T12:21:48;1.88;;;1.08;;
22752;SDS011;11543;43.144;24.684;2023-04-25T12:26:50;1.02;;;0.90;;
22752;SDS011;11543;43.144;24.684;2023-04-25T12:29:17;2.92;;;0.80;;
22752;SDS011;11543;43.144;24.684;2023-04-25T12:31:44;2.83;;;0.80;;
22752;SDS011;11543;43.144;24.684;2023-04-25T12:34:10;1.73;;;0.98;;
22752;SDS011;11543;43.144;24.684;2023-04-25T12:36:36;2.80;;;0.80;;
22752;SDS011;11543;43.144;24.684;2023-04-25T12:39:02;2.10;;;1.15;;
22752;SDS011;11543;43.144;24.684;2023-04-25T12:41:29;1.52;;;1.00;;
22752;SDS011;11543;43.144;24.684;2023-04-25T12:43:55;1.83;;;1.08;;
22752;SDS011;11543;43.144;24.684;2023-04-25T12:46:20;1.48;;;0.80;;
22752;SDS011;11543;43.144;24.684;2023-04-25T12:48:47;2.38;;;1.00;;
22752;SDS011;11543;43.144;24.684;2023-04-25T12:51:13;3.67;;;0.98;;
22752;SDS011;11543;43.144;24.684;2023-04-25T12:53:39;1.27;;;0.80;;
22752;SDS011;11543;43.144;24.684;2023-04-25T12:56:06;3.85;;;0.93;;
22752;SDS011;11543;43.144;24.684;2023-04-25T12:58:32;1.48;;;1.00;;
22752;SDS011;11543;43.144;24.684;2023-04-25T13:00:58;3.75;;;0.90;;
22752;SDS011;11543;43.144;24.684;2023-04-25T13:03:39;1.50;;;0.70;;
22752;SDS011;11543;43.144;24.684;2023-04-25T13:06:13;1.88;;;0.60;;
22752;SDS011;11543;43.144;24.684;2023-04-25T13:12:07;5.30;;;0.45;;
22752;SDS011;11543;43.144;24.684;2023-04-25T13:14:32;5.60;;;0.50;;
22752;SDS011;11543;43.144;24.684;2023-04-25T13:16:58;1.90;;;0.50;;
22752;SDS011;11543;43.144;24.684;2023-04-25T13:19:27;3.60;;;0.57;;
22752;SDS011;11543;43.144;24.684;2023-04-25T15:06:05;9.63;;;3.65;;
22752;SDS011;11543;43.144;24.684;2023-04-25T15:08:31;16.88;;;6.13;;
22752;SDS011;11543;43.144;24.684;2023-04-25T15:11:01;59.10;;;16.83;;
22752;SDS011;11543;43.144;24.684;2023-04-25T15:13:38;17.98;;;6.22;;
22752;SDS011;11543;43.144;24.684;2023-04-25T15:16:05;7.63;;;3.65;;
22752;SDS011;11543;43.144;24.684;2023-04-25T15:24:33;4.93;;;2.22;;
22752;SDS011;11543;43.144;24.684;2023-04-25T15:46:40;2.05;;;1.20;;
22752;SDS011;11543;43.144;24.684;2023-04-25T16:08:31;1.80;;;1.65;;
22752;SDS011;11543;43.144;24.684;2023-04-25T16:18:12;7.70;;;5.05;;
22752;SDS011;11543;43.144;24.684;2023-04-25T16:25:02;6.15;;;2.90;;
22752;SDS011;11543;43.144;24.684;2023-04-25T16:31:08;5.38;;;3.60;;
22752;SDS011;11543;43.144;24.684;2023-04-25T16:33:41;3.60;;;1.63;;
22752;SDS011;11543;43.144;24.684;2023-04-25T16:39:56;4.40;;;2.70;;
22752;SDS011;11543;43.144;24.684;2023-04-25T16:49:52;10.48;;;6.68;;
22752;SDS011;11543;43.144;24.684;2023-04-25T18:17:44;13.10;;;4.60;;
22752;SDS011;11543;43.144;24.684;2023-04-25T18:23:54;7.50;;;3.83;;
22752;SDS011;11543;43.144;24.684;2023-04-25T18:26:20;5.50;;;3.35;;
22752;SDS011;11543;43.144;24.684;2023-04-25T18:28:46;8.00;;;2.60;;
22752;SDS011;11543;43.144;24.684;2023-04-25T18:31:11;2.80;;;2.15;;
22752;SDS011;11543;43.144;24.684;2023-04-25T18:33:37;7.25;;;2.15;;
22752;SDS011;11543;43.144;24.684;2023-04-25T18:36:06;1.60;;;0.90;;
22752;SDS011;11543;43.144;24.684;2023-04-25T18:38:32;2.97;;;1.15;;
22752;SDS011;11543;43.144;24.684;2023-04-25T18:40:57;2.25;;;1.02;;
22752;SDS011;11543;43.144;24.684;2023-04-25T18:43:23;2.92;;;1.27;;
22752;SDS011;11543;43.144;24.684;2023-04-25T18:45:48;2.35;;;1.35;;
22752;SDS011;11543;43.144;24.684;2023-04-25T18:48:14;2.55;;;1.35;;
22752;SDS011;11543;43.144;24.684;2023-04-25T18:53:30;3.80;;;2.08;;
22752;SDS011;11543;43.144;24.684;2023-04-25T18:55:55;5.70;;;2.80;;
22752;SDS011;11543;43.144;24.684;2023-04-25T18:58:22;8.52;;;4.60;;
22752;SDS011;11543;43.144;24.684;2023-04-25T19:00:47;5.93;;;3.00;;
22752;SDS011;11543;43.144;24.684;2023-04-25T19:03:15;4.68;;;2.50;;
22752;SDS011;11543;43.144;24.684;2023-04-25T19:05:41;4.85;;;2.60;;
22752;SDS011;11543;43.144;24.684;2023-04-25T19:08:06;5.93;;;3.10;;
22752;SDS011;11543;43.144;24.684;2023-04-25T19:10:32;4.88;;;3.03;;
22752;SDS011;11543;43.144;24.684;2023-04-25T19:12:57;4.25;;;2.22;;
22752;SDS011;11543;43.144;24.684;2023-04-25T19:15:23;2.42;;;1.75;;
22752;SDS011;11543;43.144;24.684;2023-04-25T19:17:49;5.13;;;2.00;;
22752;SDS011;11543;43.144;24.684;2023-04-25T19:20:15;8.02;;;3.33;;
22752;SDS011;11543;43.144;24.684;2023-04-25T19:22:41;14.52;;;8.18;;
22752;SDS011;11543;43.144;24.684;2023-04-25T19:25:10;16.73;;;8.88;;
22752;SDS011;11543;43.144;24.684;2023-04-25T19:27:39;19.42;;;10.73;;
22752;SDS011;11543;43.144;24.684;2023-04-25T19:30:05;15.00;;;9.70;;
22752;SDS011;11543;43.144;24.684;2023-04-25T19:32:33;14.25;;;8.38;;
22752;SDS011;11543;43.144;24.684;2023-04-25T19:34:59;12.68;;;8.02;;
22752;SDS011;11543;43.144;24.684;2023-04-25T19:37:26;9.23;;;5.30;;
22752;SDS011;11543;43.144;24.684;2023-04-25T19:39:52;9.63;;;5.22;;
22752;SDS011;11543;43.144;24.684;2023-04-25T19:42:17;7.97;;;5.03;;
22752;SDS011;11543;43.144;24.684;2023-04-25T19:44:46;7.40;;;4.68;;
22752;SDS011;11543;43.144;24.684;2023-04-25T19:47:11;7.95;;;5.95;;
22752;SDS011;11543;43.144;24.684;2023-04-25T19:49:37;8.65;;;6.03;;
22752;SDS011;11543;43.144;24.684;2023-04-25T19:52:05;7.93;;;5.28;;
22752;SDS011;11543;43.144;24.684;2023-04-25T19:55:16;6.68;;;5.78;;
22752;SDS011;11543;43.144;24.684;2023-04-25T19:58:03;8.75;;;6.28;;
22752;SDS011;11543;43.144;24.684;2023-04-25T20:00:30;9.00;;;6.28;;
22752;SDS011;11543;43.144;24.684;2023-04-25T20:02:56;8.68;;;6.50;;
22752;SDS011;11543;43.144;24.684;2023-04-25T20:05:22;15.18;;;8.88;;
22752;SDS011;11543;43.144;24.684;2023-04-25T20:07:47;11.85;;;7.50;;
22752;SDS011;11543;43.144;24.684;2023-04-25T20:10:13;11.70;;;7.65;;
22752;SDS011;11543;43.144;24.684;2023-04-25T20:13:02;9.27;;;6.78;;
22752;SDS011;11543;43.144;24.684;2023-04-25T20:15:46;7.80;;;5.07;;
22752;SDS011;11543;43.144;24.684;2023-04-25T20:18:12;13.13;;;5.75;;
22752;SDS011;11543;43.144;24.684;2023-04-25T20:20:40;5.57;;;4.53;;
22752;SDS011;11543;43.144;24.684;2023-04-25T20:23:11;6.90;;;4.23;;
22752;SDS011;11543;43.144;24.684;2023-04-25T20:25:47;7.38;;;4.95;;
22752;SDS011;11543;43.144;24.684;2023-04-25T20:28:13;6.70;;;5.50;;
22752;SDS011;11543;43.144;24.684;2023-04-25T20:30:41;6.88;;;5.50;;
22752;SDS011;11543;43.144;24.684;2023-04-25T20:33:10;11.40;;;6.78;;
22752;SDS011;11543;43.144;24.684;2023-04-25T20:35:38;11.20;;;6.28;;
22752;SDS011;11543;43.144;24.684;2023-04-25T20:38:04;9.10;;;7.00;;
22752;SDS011;11543;43.144;24.684;2023-04-25T20:40:29;10.02;;;7.07;;
22752;SDS011;11543;43.144;24.684;2023-04-25T20:42:55;7.97;;;5.60;;
22752;SDS011;11543;43.144;24.684;2023-04-25T20:48:26;9.23;;;5.75;;
22752;SDS011;11543;43.144;24.684;2023-04-25T20:50:52;10.52;;;7.30;;
22752;SDS011;11543;43.144;24.684;2023-04-25T20:53:44;13.73;;;7.78;;
22752;SDS011;11543;43.144;24.684;2023-04-25T20:56:10;10.20;;;7.85;;
22752;SDS011;11543;43.144;24.684;2023-04-25T20:58:37;10.40;;;7.97;;
22752;SDS011;11543;43.144;24.684;2023-04-25T21:01:03;11.68;;;8.73;;
22752;SDS011;11543;43.144;24.684;2023-04-25T21:03:30;13.38;;;8.93;;
22752;SDS011;11543;43.144;24.684;2023-04-25T21:05:56;11.75;;;8.77;;
22752;SDS011;11543;43.144;24.684;2023-04-25T21:08:22;11.23;;;8.23;;
22752;SDS011;11543;43.144;24.684;2023-04-25T21:10:47;9.73;;;7.63;;
22752;SDS011;11543;43.144;24.684;2023-04-25T21:13:13;9.65;;;7.32;;
22752;SDS011;11543;43.144;24.684;2023-04-25T21:15:39;11.60;;;8.25;;
22752;SDS011;11543;43.144;24.684;2023-04-25T21:18:04;8.30;;;7.45;;
22752;SDS011;11543;43.144;24.684;2023-04-25T21:20:31;8.23;;;7.20;;
22752;SDS011;11543;43.144;24.684;2023-04-25T21:22:59;10.82;;;7.68;;
22752;SDS011;11543;43.144;24.684;2023-04-25T21:25:27;9.88;;;8.13;;
22752;SDS011;11543;43.144;24.684;2023-04-25T21:27:56;10.25;;;8.00;;
22752;SDS011;11543;43.144;24.684;2023-04-25T21:30:23;9.38;;;8.02;;
22752;SDS011;11543;43.144;24.684;2023-04-25T21:32:57;9.65;;;7.50;;
22752;SDS011;11543;43.144;24.684;2023-04-25T21:35:26;10.90;;;8.05;;
22752;SDS011;11543;43.144;24.684;2023-04-25T21:38:04;10.60;;;8.02;;
22752;SDS011;11543;43.144;24.684;2023-04-25T21:40:33;10.35;;;8.13;;
22752;SDS011;11543;43.144;24.684;2023-04-25T21:45:59;12.05;;;8.63;;
22752;SDS011;11543;43.144;24.684;2023-04-25T21:48:53;14.00;;;9.68;;
22752;SDS011;11543;43.144;24.684;2023-04-25T21:51:25;13.60;;;9.50;;
22752;SDS011;11543;43.144;24.684;2023-04-25T21:53:58;13.18;;;9.48;;
22752;SDS011;11543;43.144;24.684;2023-04-25T21:56:31;12.63;;;9.13;;
22752;SDS011;11543;43.144;24.684;2023-04-25T21:58:57;12.45;;;8.90;;
22752;SDS011;11543;43.144;24.684;2023-04-25T22:01:44;12.40;;;8.98;;
22752;SDS011;11543;43.144;24.684;2023-04-25T22:04:41;13.27;;;9.18;;
22752;SDS011;11543;43.144;24.684;2023-04-25T22:07:18;14.60;;;9.10;;
22752;SDS011;11543;43.144;24.684;2023-04-25T22:10:27;13.65;;;9.02;;
22752;SDS011;11543;43.144;24.684;2023-04-25T22:13:15;13.40;;;8.82;;
22752;SDS011;11543;43.144;24.684;2023-04-25T22:16:14;10.60;;;7.90;;
22752;SDS011;11543;43.144;24.684;2023-04-25T22:18:41;11.85;;;8.80;;
22752;SDS011;11543;43.144;24.684;2023-04-25T22:21:09;10.85;;;8.85;;
22752;SDS011;11543;43.144;24.684;2023-04-25T22:23:34;9.68;;;8.68;;
22752;SDS011;11543;43.144;24.684;2023-04-25T22:26:01;9.05;;;8.07;;
22752;SDS011;11543;43.144;24.684;2023-04-25T22:28:26;9.10;;;7.95;;
22752;SDS011;11543;43.144;24.684;2023-04-25T22:30:52;8.63;;;7.65;;
22752;SDS011;11543;43.144;24.684;2023-04-25T22:33:21;7.85;;;7.05;;
22752;SDS011;11543;43.144;24.684;2023-04-25T22:35:54;10.18;;;7.32;;
22752;SDS011;11543;43.144;24.684;2023-04-25T22:38:29;7.88;;;7.07;;
22752;SDS011;11543;43.144;24.684;2023-04-25T22:40:54;8.00;;;6.78;;
22752;SDS011;11543;43.144;24.684;2023-04-25T22:43:20;7.63;;;6.82;;
22752;SDS011;11543;43.144;24.684;2023-04-25T22:45:46;8.00;;;6.80;;
22752;SDS011;11543;43.144;24.684;2023-04-25T22:48:11;8.43;;;6.90;;
22752;SDS011;11543;43.144;24.684;2023-04-25T22:50:37;7.97;;;7.03;;
22752;SDS011;11543;43.144;24.684;2023-04-25T22:53:09;8.15;;;7.32;;
22752;SDS011;11543;43.144;24.684;2023-04-25T22:55:35;9.63;;;7.22;;
22752;SDS011;11543;43.144;24.684;2023-04-25T22:58:04;9.10;;;8.20;;
22752;SDS011;11543;43.144;24.684;2023-04-25T23:00:32;12.25;;;7.60;;
22752;SDS011;11543;43.144;24.684;2023-04-25T23:02:58;8.35;;;7.45;;
22752;SDS011;11543;43.144;24.684;2023-04-25T23:05:24;8.52;;;7.40;;
22752;SDS011;11543;43.144;24.684;2023-04-25T23:07:50;8.60;;;7.50;;
22752;SDS011;11543;43.144;24.684;2023-04-25T23:10:16;8.55;;;7.25;;
22752;SDS011;11543;43.144;24.684;2023-04-25T23:12:42;9.05;;;7.32;;
22752;SDS011;11543;43.144;24.684;2023-04-25T23:15:08;9.55;;;7.10;;
22752;SDS011;11543;43.144;24.684;2023-04-25T23:17:34;10.02;;;7.22;;
22752;SDS011;11543;43.144;24.684;2023-04-25T23:20:00;10.98;;;7.28;;
22752;SDS011;11543;43.144;24.684;2023-04-25T23:22:29;9.77;;;7.15;;
22752;SDS011;11543;43.144;24.684;2023-04-25T23:24:55;8.70;;;7.65;;
22752;SDS011;11543;43.144;24.684;2023-04-25T23:27:20;8.82;;;7.35;;
22752;SDS011;11543;43.144;24.684;2023-04-25T23:29:52;11.52;;;7.85;;
22752;SDS011;11543;43.144;24.684;2023-04-25T23:32:19;9.68;;;7.47;;
22752;SDS011;11543;43.144;24.684;2023-04-25T23:34:46;9.35;;;7.38;;
22752;SDS011;11543;43.144;24.684;2023-04-25T23:37:11;9.20;;;7.07;;
22752;SDS011;11543;43.144;24.684;2023-04-25T23:39:40;7.85;;;7.03;;
22752;SDS011;11543;43.144;24.684;2023-04-25T23:42:05;10.43;;;6.97;;
22752;SDS011;11543;43.144;24.684;2023-04-25T23:44:31;10.40;;;7.45;;
22752;SDS011;11543;43.144;24.684;2023-04-25T23:46:57;15.07;;;7.28;;
22752;SDS011;11543;43.144;24.684;2023-04-25T23:49:25;9.95;;;7.30;;
22752;SDS011;11543;43.144;24.684;2023-04-25T23:51:51;8.43;;;7.60;;
22752;SDS011;11543;43.144;24.684;2023-04-25T23:54:16;8.60;;;6.90;;
22752;SDS011;11543;43.144;24.684;2023-04-25T23:56:42;8.00;;;7.20;;
22752;SDS011;11543;43.144;24.684;2023-04-25T23:59:08;9.05;;;6.90;;
